Terminal Aerodrome Forecast
Issued by NWS Upton, NY

Home | Current Version | Previous Version | Text Only | Print | Product List | Glossary On
Versions: 1 2 3 4 5 6 7 8 9 10 11 12 13 14 15 16 17 18 19 20 21 22 23 24 25 26 27 28 29 30 31 32
000
FTUS41 KOKX 031120
TAFJFK
TAF
KJFK 031120Z 0312/0418 VRB05KT P6SM FEW100
     FM031500 20008KT P6SM SCT250
     FM031700 17011KT P6SM FEW250
     FM040200 19007KT P6SM SKC
     FM040500 VRB04KT P6SM SKC
     FM041400 19007KT P6SM SKC=

USA.gov is the U.S. government's official web portal to all federal, state and local government web resources and services.